Time;durP1;ratioP1;P1;durP2;ratioP2;P2;SDS_P1;SDS_P2;PMS_P1;PMS_P2;Temp;Humidity;BMP_temperature;BMP_pressure;BME280_temperature;BME280_humidity;BME280_pressure;Samples;Min_cycle;Max_cycle;Signal;HPM_P1;HPM_P2
2022/07/05 00:00:57;;;;;;;3.72;1.30;;;;;;;11.60;87.13;101910.22;2088190;28;31462;-62
2022/07/05 00:01:59;;;;;;;2.78;1.20;;;;;;;11.57;86.91;101912.94;2088008;28;20041;-61
2022/07/05 00:03:01;;;;;;;3.30;1.10;;;;;;;11.56;87.32;101916.53;2088216;28;33488;-62
2022/07/05 00:04:03;;;;;;;3.63;1.40;;;;;;;11.52;87.23;101918.34;2087973;28;31029;-61
2022/07/05 00:05:05;;;;;;;4.93;1.60;;;;;;;11.50;87.54;101922.81;2087975;28;31458;-62
2022/07/05 00:06:07;;;;;;;5.30;1.75;;;;;;;11.48;87.49;101916.59;2088261;28;25279;-62
2022/07/05 00:07:19;;;;;;;4.70;1.55;;;;;;;11.48;88.25;101915.72;2088540;28;21079;-62
2022/07/05 00:08:23;;;;;;;3.20;1.60;;;;;;;11.44;88.04;101918.41;2088400;28;23191;-61
2022/07/05 00:09:24;;;;;;;3.13;1.42;;;;;;;11.43;88.61;101911.31;2087849;28;30113;-62
2022/07/05 00:10:26;;;;;;;3.17;1.65;;;;;;;11.40;88.56;101919.38;2088486;28;20034;-62
2022/07/05 00:11:28;;;;;;;5.32;1.77;;;;;;;11.38;88.43;101913.13;2088511;28;22907;-62
2022/07/05 00:12:32;;;;;;;4.43;1.95;;;;;;;11.36;88.73;101914.94;2088469;28;22661;-63
2022/07/05 00:13:34;;;;;;;2.83;1.50;;;;;;;11.32;88.77;101923.91;2088043;28;30543;-62
2022/07/05 00:14:36;;;;;;;3.78;1.75;;;;;;;11.28;88.56;101917.69;2088151;28;23753;-62
2022/07/05 00:15:38;;;;;;;2.47;1.27;;;;;;;11.26;88.55;101918.63;2089034;28;20044;-62
2022/07/05 00:16:42;;;;;;;3.58;1.38;;;;;;;11.23;88.55;101910.59;2088071;28;27466;-62
2022/07/05 00:17:45;;;;;;;1.65;1.50;;;;;;;11.21;88.66;101915.97;2088503;28;22426;-63
2022/07/05 00:18:47;;;;;;;1.75;1.55;;;;;;;11.17;88.77;101911.56;2088329;28;20038;-62
2022/07/05 00:20:10;;;;;;;3.40;2.08;;;;;;;11.14;88.86;101910.69;2088152;28;28116;-60
2022/07/05 00:21:37;;;;;;;2.95;1.65;;;;;;;11.08;89.04;101919.69;2088240;28;20041;-61
2022/07/05 00:22:44;;;;;;;3.13;1.58;;;;;;;11.04;89.13;101918.81;2088161;28;20056;-62
2022/07/05 00:25:09;;;;;;;2.20;1.70;;;;;;;11.01;89.39;101920.66;2065311;28;20552;-65
2022/07/05 00:26:11;;;;;;;2.25;1.85;;;;;;;10.97;89.80;101917.09;2071605;28;20042;-66
2022/07/05 00:27:13;;;;;;;4.30;1.85;;;;;;;10.96;90.05;101914.44;2071142;28;20128;-66
2022/07/05 00:28:15;;;;;;;3.10;1.85;;;;;;;10.93;90.28;101919.81;2063901;28;22046;-65
2022/07/05 00:29:17;;;;;;;2.85;2.10;;;;;;;10.94;90.40;101919.81;2063020;28;26638;-66
2022/07/05 00:30:19;;;;;;;4.68;2.00;;;;;;;10.89;90.24;101918.94;2064168;28;20085;-66
2022/07/05 00:31:22;;;;;;;2.95;1.55;;;;;;;10.90;90.48;101918.06;2062879;28;29888;-66
2022/07/05 00:32:25;;;;;;;2.85;1.80;;;;;;;10.89;90.67;101921.63;2063391;28;32857;-65
2022/07/05 00:33:26;;;;;;;3.70;1.77;;;;;;;10.87;91.05;101912.72;2062222;28;37496;-66
2022/07/05 00:34:28;;;;;;;4.93;2.08;;;;;;;10.85;91.10;101920.75;2055058;28;21760;-65
2022/07/05 00:35:30;;;;;;;3.83;2.00;;;;;;;10.87;91.39;101927.03;2063131;28;20228;-66
2022/07/05 00:36:32;;;;;;;4.63;2.30;;;;;;;10.92;91.92;101923.41;2063398;28;31983;-65
2022/07/05 00:37:36;;;;;;;5.32;2.42;;;;;;;10.90;91.83;101920.75;2070404;28;20984;-65
2022/07/05 00:38:38;;;;;;;6.13;2.20;;;;;;;10.89;91.84;101922.53;2063351;28;31041;-65
2022/07/05 00:39:40;;;;;;;7.18;3.15;;;;;;;10.93;92.63;101920.72;2062855;28;23013;-65
2022/07/05 00:40:43;;;;;;;3.53;2.65;;;;;;;10.89;92.19;101918.94;2071247;28;20046;-65
2022/07/05 00:41:45;;;;;;;3.65;2.63;;;;;;;10.90;92.63;101920.75;2063075;28;20055;-66
2022/07/05 00:42:47;;;;;;;3.00;2.25;;;;;;;10.88;92.47;101922.56;2063008;28;20187;-66
2022/07/05 00:44:01;;;;;;;4.00;2.75;;;;;;;10.86;92.42;101919.00;2063960;28;20038;-66
2022/07/05 00:45:08;;;;;;;4.85;2.80;;;;;;;10.84;92.61;101924.38;2071555;28;20116;-66
2022/07/05 00:46:10;;;;;;;6.10;3.03;;;;;;;10.87;93.33;101931.47;2071323;28;20050;-65
2022/07/05 00:47:13;;;;;;;3.05;2.80;;;;;;;10.86;93.33;101927.03;2070421;28;21116;-65
2022/07/05 00:48:15;;;;;;;5.05;3.28;;;;;;;10.86;93.43;101929.72;2063810;28;20930;-65
2022/07/05 00:49:17;;;;;;;4.15;2.90;;;;;;;10.83;93.33;101930.59;2071077;28;21144;-65
2022/07/05 00:50:19;;;;;;;3.97;3.08;;;;;;;10.79;92.85;101931.53;2071219;28;20133;-66
2022/07/05 00:51:25;;;;;;;3.78;3.25;;;;;;;10.77;93.17;101932.47;2063920;28;20186;-65
2022/07/05 00:52:28;;;;;;;4.35;3.08;;;;;;;10.74;93.01;101924.44;2070927;28;20062;-66
2022/07/05 00:53:30;;;;;;;3.85;3.00;;;;;;;10.74;93.21;101927.13;2070965;28;22160;-66
2022/07/05 00:54:36;;;;;;;4.35;3.08;;;;;;;10.69;92.81;101922.72;2070102;28;33574;-65
2022/07/05 00:55:38;;;;;;;6.25;3.95;;;;;;;10.69;93.90;101922.72;2065846;28;20635;-65
2022/07/05 00:56:39;;;;;;;3.58;3.25;;;;;;;10.67;93.71;101919.13;2062880;28;20038;-65
2022/07/05 00:57:44;;;;;;;6.63;4.70;;;;;;;10.77;95.52;101924.44;2063300;28;20051;-65
2022/07/05 00:58:46;;;;;;;9.52;3.85;;;;;;;10.69;93.95;101921.78;2071165;28;20046;-65
2022/07/05 00:59:50;;;;;;;3.53;3.22;;;;;;;10.65;93.20;101926.28;2070799;28;20194;-65
2022/07/05 01:00:52;;;;;;;4.53;3.67;;;;;;;10.61;93.83;101924.53;2070665;28;20120;-65
2022/07/05 01:01:54;;;;;;;8.07;4.18;;;;;;;10.58;93.67;101916.50;2063602;28;22297;-65
2022/07/05 01:02:56;;;;;;;4.57;3.33;;;;;;;10.58;93.54;101921.00;2063019;28;20181;-65
2022/07/05 01:03:57;;;;;;;3.63;3.20;;;;;;;10.56;93.71;101923.69;2062635;28;20153;-65
2022/07/05 01:05:00;;;;;;;6.18;5.03;;;;;;;10.58;94.46;101923.66;2063126;28;20042;-66
2022/07/05 01:06:06;;;;;;;5.10;4.20;;;;;;;10.54;94.24;101930.84;2070515;28;24272;-65
2022/07/05 01:07:07;;;;;;;8.40;4.40;;;;;;;10.52;94.41;101929.09;2069893;28;24991;-64
2022/07/05 01:08:12;;;;;;;6.07;4.28;;;;;;;10.51;94.47;101928.16;2063624;28;20166;-66
2022/07/05 01:09:17;;;;;;;5.40;4.57;;;;;;;10.52;94.96;101929.97;2070520;28;35707;-66
2022/07/05 01:10:19;;;;;;;5.32;4.82;;;;;;;10.49;94.41;101925.50;2070313;28;20043;-65
2022/07/05 01:11:21;;;;;;;5.68;4.30;;;;;;;10.48;95.20;101922.81;2071082;28;20839;-66
2022/07/05 01:12:23;;;;;;;7.15;4.82;;;;;;;10.50;95.03;101923.75;2062606;28;26032;-65
2022/07/05 01:13:29;;;;;;;5.68;4.35;;;;;;;10.50;95.54;101921.94;2062730;28;20175;-66
2022/07/05 01:14:32;;;;;;;5.75;4.55;;;;;;;10.48;95.19;101923.75;2064539;28;33198;-66
2022/07/05 01:15:34;;;;;;;5.55;3.58;;;;;;;10.47;94.94;101924.63;2065268;28;20121;-65
2022/07/05 01:16:38;;;;;;;4.25;3.85;;;;;;;10.44;95.14;101926.44;2064990;28;20979;-66
2022/07/05 01:17:42;;;;;;;7.93;4.22;;;;;;;10.43;95.45;101924.69;2065227;28;20169;-66
2022/07/05 01:18:44;;;;;;;5.85;4.38;;;;;;;10.39;95.54;101929.16;2072653;28;20120;-65
2022/07/05 01:19:46;;;;;;;8.43;4.20;;;;;;;10.37;95.03;101922.91;2064292;28;20046;-65
2022/07/05 01:20:51;;;;;;;6.70;4.40;;;;;;;10.35;94.90;101923.81;2064499;28;20058;-66
2022/07/05 01:21:53;;;;;;;5.57;4.65;;;;;;;10.30;95.13;101932.75;2064207;28;20157;-65
2022/07/05 01:22:59;;;;;;;4.57;4.18;;;;;;;10.29;95.65;101932.75;2064187;28;20319;-64
2022/07/05 01:24:04;;;;;;;7.68;3.67;;;;;;;10.28;95.67;101921.16;2064810;28;21428;-65
2022/07/05 01:25:06;;;;;;;5.25;4.75;;;;;;;10.27;96.27;101924.72;2065131;28;20059;-66
2022/07/05 01:26:11;;;;;;;7.82;5.00;;;;;;;10.29;96.16;101925.59;2072778;28;20164;-66
2022/07/05 01:27:13;;;;;;;7.85;4.90;;;;;;;10.27;96.43;101922.03;2071755;28;20129;-65
2022/07/05 01:28:18;;;;;;;4.47;4.07;;;;;;;10.27;96.48;101930.06;2072305;28;21792;-65
2022/07/05 01:29:22;;;;;;;6.10;5.10;;;;;;;10.29;96.13;101924.72;2071704;28;20124;-66
2022/07/05 01:30:27;;;;;;;8.43;5.03;;;;;;;10.26;96.45;101927.41;2064919;28;22287;-65
2022/07/05 01:31:29;;;;;;;6.30;4.60;;;;;;;10.25;96.53;101926.53;2065257;28;20050;-66
2022/07/05 01:32:31;;;;;;;5.55;4.75;;;;;;;10.26;96.45;101922.06;2065056;28;20047;-66
2022/07/05 01:33:33;;;;;;;4.75;4.20;;;;;;;10.24;96.50;101930.09;2072100;28;22208;-65
2022/07/05 01:34:38;;;;;;;6.93;4.65;;;;;;;10.23;96.45;101928.31;2063977;28;26693;-66
2022/07/05 01:35:41;;;;;;;6.95;4.30;;;;;;;10.24;97.18;101927.41;2064766;28;20173;-65
2022/07/05 01:36:42;;;;;;;4.28;3.75;;;;;;;10.21;96.64;101924.78;2071789;28;23561;-66
2022/07/05 01:37:44;;;;;;;6.68;5.13;;;;;;;10.20;96.52;101927.44;2064965;28;20097;-66
2022/07/05 01:38:46;;;;;;;5.32;4.85;;;;;;;10.19;96.53;101922.97;2072075;28;20247;-65
2022/07/05 01:39:52;;;;;;;7.78;5.07;;;;;;;10.23;97.77;101925.66;2071835;28;33394;-66
2022/07/05 01:40:54;;;;;;;10.52;4.60;;;;;;;10.19;96.94;101921.19;2072491;28;20054;-65
2022/07/05 01:41:56;;;;;;;6.55;5.53;;;;;;;10.18;96.92;101923.91;2072147;28;20047;-66
2022/07/05 01:42:59;;;;;;;8.45;5.60;;;;;;;10.16;96.70;101925.66;2065171;28;20042;-66
2022/07/05 01:44:03;;;;;;;6.47;5.13;;;;;;;10.12;96.99;101919.44;2072133;28;20050;-65
2022/07/05 01:45:05;;;;;;;6.38;4.97;;;;;;;10.15;97.78;101922.09;2071551;28;34007;-66
2022/07/05 01:46:08;;;;;;;8.05;5.60;;;;;;;10.12;97.37;101923.03;2064649;28;30660;-66
2022/07/05 01:47:11;;;;;;;6.75;5.35;;;;;;;10.07;97.32;101921.28;2072231;28;20046;-65
2022/07/05 01:48:21;;;;;;;9.77;6.05;;;;;;;10.07;97.10;101916.81;2072521;28;21210;-66
2022/07/05 01:49:24;;;;;;;5.50;4.80;;;;;;;10.03;96.73;101919.50;2072574;28;21288;-66
2022/07/05 01:50:29;;;;;;;7.43;5.78;;;;;;;10.03;97.22;101914.13;2070640;28;22120;-66
2022/07/05 01:51:37;;;;;;;7.70;6.05;;;;;;;9.98;97.45;101921.28;2072492;28;20101;-66
2022/07/05 01:52:43;;;;;;;7.55;5.07;;;;;;;9.97;97.44;101909.72;2071903;28;20957;-66
2022/07/05 01:53:49;;;;;;;7.82;6.05;;;;;;;9.94;97.40;101910.63;2072154;28;20156;-65
2022/07/05 01:54:51;;;;;;;7.30;5.95;;;;;;;9.93;97.39;101918.66;2072335;28;20080;-65
2022/07/05 01:55:56;;;;;;;6.78;5.32;;;;;;;9.91;97.40;101910.63;2072318;28;20928;-66
2022/07/05 01:56:58;;;;;;;8.68;5.40;;;;;;;9.92;98.20;101912.44;2064237;28;21667;-66
2022/07/05 01:58:03;;;;;;;5.63;5.03;;;;;;;9.92;97.80;101912.44;2063924;28;20121;-66
2022/07/05 01:59:07;;;;;;;5.88;5.28;;;;;;;9.89;97.82;101919.59;2072046;28;20157;-66
2022/07/05 02:00:09;;;;;;;8.60;6.97;;;;;;;9.89;97.55;101915.09;2072318;28;20112;-66
2022/07/05 02:01:14;;;;;;;7.75;6.43;;;;;;;9.85;97.87;101921.38;2072474;28;20050;-65
2022/07/05 02:02:16;;;;;;;7.57;5.15;;;;;;;9.84;97.96;101916.91;2071614;28;21108;-69
2022/07/05 02:03:23;;;;;;;8.52;5.70;;;;;;;9.80;98.53;101912.47;2071799;28;20120;-66
2022/07/05 02:04:45;;;;;;;7.43;6.68;;;;;;;9.81;97.89;101911.56;2072159;28;20128;-66
2022/07/05 02:05:53;;;;;;;7.55;6.32;;;;;;;9.79;98.51;101910.69;2064105;28;20027;-65
2022/07/05 02:06:58;;;;;;;6.47;5.88;;;;;;;9.77;98.73;101908.94;2064352;28;20046;-66
2022/07/05 02:08:00;;;;;;;8.45;6.75;;;;;;;9.74;98.78;101908.06;2063746;28;20046;-66
2022/07/05 02:09:10;;;;;;;8.32;6.40;;;;;;;9.72;97.67;101916.97;2064516;28;20047;-66
2022/07/05 02:10:13;;;;;;;6.82;6.22;;;;;;;9.72;98.30;101906.25;2071810;28;20045;-64
2022/07/05 02:11:15;;;;;;;8.50;6.88;;;;;;;9.74;98.15;101907.13;2063955;28;20180;-65
2022/07/05 02:12:17;;;;;;;8.68;7.25;;;;;;;9.73;98.37;101911.59;2064006;28;20053;-64
2022/07/05 02:13:20;;;;;;;11.90;6.65;;;;;;;9.73;98.35;101911.59;2071694;28;20164;-65
2022/07/05 02:14:22;;;;;;;7.78;6.70;;;;;;;9.74;99.28;101913.41;2071661;28;20197;-64
2022/07/05 02:15:24;;;;;;;8.27;6.55;;;;;;;9.74;98.62;101912.47;2071885;28;23279;-65
2022/07/05 02:16:27;;;;;;;9.30;6.60;;;;;;;9.71;98.53;101909.84;2064676;28;20035;-65
2022/07/05 02:17:32;;;;;;;7.72;6.78;;;;;;;9.73;99.60;101908.06;2071906;28;20053;-65
2022/07/05 02:18:36;;;;;;;7.07;6.38;;;;;;;9.66;98.45;101915.19;2072253;28;20035;-65
2022/07/05 02:19:42;;;;;;;7.00;5.38;;;;;;;9.65;98.66;101917.88;2071665;28;20142;-65
2022/07/05 02:20:46;;;;;;;9.30;7.10;;;;;;;9.62;98.90;101917.88;2063928;28;20039;-64
2022/07/05 02:21:50;;;;;;;6.68;6.03;;;;;;;9.59;97.85;101917.91;2064010;28;20230;-64
2022/07/05 02:22:56;;;;;;;5.82;5.32;;;;;;;9.53;97.85;101918.81;2072023;28;20050;-64
2022/07/05 02:23:58;;;;;;;6.70;6.10;;;;;;;9.53;98.97;101927.72;2071682;28;20044;-64
2022/07/05 02:25:08;;;;;;;11.63;7.35;;;;;;;9.54;99.24;101925.94;2071957;28;20034;-65
2022/07/05 02:26:11;;;;;;;10.57;7.25;;;;;;;9.54;99.52;101926.81;2063653;28;20039;-65
2022/07/05 02:27:16;;;;;;;9.38;8.00;;;;;;;9.50;99.52;101925.03;2064629;28;20931;-65
2022/07/05 02:28:18;;;;;;;9.10;8.15;;;;;;;9.55;100.00;101917.03;2072036;28;20184;-65
2022/07/05 02:29:23;;;;;;;8.90;7.70;;;;;;;9.54;99.39;101926.81;2071750;28;20046;-65
2022/07/05 02:30:28;;;;;;;9.68;8.70;;;;;;;9.55;100.00;101923.25;2063518;28;20965;-65
2022/07/05 02:31:31;;;;;;;9.60;8.70;;;;;;;9.60;100.00;101925.00;2063730;28;20055;-66
2022/07/05 02:32:33;;;;;;;9.13;8.18;;;;;;;9.59;99.77;101924.13;2072092;28;20050;-65
2022/07/05 02:33:38;;;;;;;11.95;9.77;;;;;;;9.71;100.00;101925.91;2071791;28;20051;-65
2022/07/05 02:34:42;;;;;;;10.90;9.80;;;;;;;9.79;100.00;101926.72;2071751;28;20145;-65
2022/07/05 02:35:46;;;;;;;14.23;9.50;;;;;;;9.78;100.00;101918.72;2071990;28;21008;-65
2022/07/05 02:36:47;;;;;;;9.35;8.35;;;;;;;9.78;100.00;101914.28;2064362;28;20124;-65
2022/07/05 02:37:50;;;;;;;11.73;9.27;;;;;;;9.82;100.00;101916.03;2071595;28;20456;-66
2022/07/05 02:38:57;;;;;;;10.57;9.48;;;;;;;9.84;100.00;101921.38;2063554;28;20043;-66
2022/07/05 02:40:07;;;;;;;10.38;8.77;;;;;;;9.80;100.00;101917.84;2064733;28;20102;-65
2022/07/05 02:41:12;;;;;;;9.35;8.45;;;;;;;9.77;100.00;101922.31;2063342;28;20899;-65
2022/07/05 02:42:18;;;;;;;8.73;7.90;;;;;;;9.75;100.00;101919.63;2063923;28;20141;-65
2022/07/05 02:43:20;;;;;;;10.23;9.23;;;;;;;9.77;100.00;101912.47;2063055;28;30567;-65
2022/07/05 02:44:25;;;;;;;9.32;8.35;;;;;;;9.74;100.00;101918.75;2063583;28;20078;-65
2022/07/05 02:45:27;;;;;;;9.90;8.68;;;;;;;9.78;100.00;101913.38;2063977;28;20055;-65
2022/07/05 02:46:32;;;;;;;13.02;10.00;;;;;;;9.83;100.00;101920.47;2063933;28;20948;-65
2022/07/05 02:47:37;;;;;;;11.60;9.57;;;;;;;9.81;100.00;101919.59;2063663;28;20113;-65
2022/07/05 02:48:39;;;;;;;11.13;9.98;;;;;;;9.90;100.00;101916.88;2063828;28;20173;-65
2022/07/05 02:49:43;;;;;;;11.02;9.90;;;;;;;9.87;100.00;101924.94;2063643;28;20055;-65
2022/07/05 02:50:47;;;;;;;11.55;9.07;;;;;;;9.84;100.00;101924.06;2063839;28;20039;-65
2022/07/05 02:51:51;;;;;;;11.60;10.10;;;;;;;9.88;100.00;101920.47;2064575;28;20205;-65
2022/07/05 02:52:53;;;;;;;10.15;9.15;;;;;;;9.85;100.00;101916.03;2064256;28;20043;-65
2022/07/05 02:53:56;;;;;;;11.27;9.63;;;;;;;9.86;100.00;101925.81;2072000;28;20850;-65
2022/07/05 02:54:57;;;;;;;10.35;9.15;;;;;;;9.86;100.00;101922.25;2064065;28;20043;-65
2022/07/05 02:56:02;;;;;;;10.25;9.20;;;;;;;9.83;100.00;101917.78;2063941;28;20165;-64
2022/07/05 02:57:04;;;;;;;15.00;9.48;;;;;;;9.82;100.00;101921.38;2071956;28;20180;-65
2022/07/05 02:58:06;;;;;;;12.23;10.10;;;;;;;9.88;100.00;101920.47;2071817;28;20039;-63
2022/07/05 02:59:08;;;;;;;11.02;8.75;;;;;;;9.81;100.00;101919.59;2071328;28;20082;-66
2022/07/05 03:00:12;;;;;;;9.93;9.02;;;;;;;9.79;99.87;101925.84;2071772;28;20132;-67
2022/07/05 03:01:18;;;;;;;10.30;8.40;;;;;;;9.77;100.00;101925.84;2063754;28;20047;-66
2022/07/05 03:02:25;;;;;;;10.75;8.43;;;;;;;9.74;100.00;101929.44;2064492;28;20051;-65
2022/07/05 03:03:28;;;;;;;13.70;9.43;;;;;;;9.81;100.00;101924.06;2063108;28;20039;-66
2022/07/05 03:04:30;;;;;;;12.98;10.38;;;;;;;9.85;100.00;101926.72;2063644;28;20043;-64
2022/07/05 03:05:32;;;;;;;12.82;9.65;;;;;;;9.79;100.00;101926.72;2071271;28;20050;-65
2022/07/05 03:06:38;;;;;;;11.60;10.40;;;;;;;9.79;100.00;101921.38;2071800;28;20046;-64
2022/07/05 03:07:39;;;;;;;11.30;9.52;;;;;;;9.78;100.00;101924.06;2071870;28;20039;-64
2022/07/05 03:08:42;;;;;;;16.85;9.43;;;;;;;9.77;100.00;101924.97;2071417;28;20042;-63
2022/07/05 03:09:47;;;;;;;11.15;9.48;;;;;;;9.74;100.00;101928.53;2071788;28;20173;-67
2022/07/05 03:10:49;;;;;;;10.63;9.02;;;;;;;9.73;100.00;101932.13;2063870;28;20106;-66
2022/07/05 03:11:51;;;;;;;9.55;8.50;;;;;;;9.73;100.00;101927.66;2063491;28;20039;-64
2022/07/05 03:12:53;;;;;;;10.82;9.63;;;;;;;9.76;100.00;101921.38;2071805;28;20043;-66
2022/07/05 03:13:56;;;;;;;9.60;8.27;;;;;;;9.70;99.99;101929.44;2063510;28;20880;-64
2022/07/05 03:14:58;;;;;;;10.32;9.23;;;;;;;9.71;100.00;101917.88;2063625;28;20806;-64
2022/07/05 03:16:01;;;;;;;11.02;9.93;;;;;;;9.71;100.00;101928.56;2071724;28;20035;-65
2022/07/05 03:17:03;;;;;;;11.32;9.38;;;;;;;9.68;100.00;101928.56;2071986;28;20847;-65
2022/07/05 03:18:05;;;;;;;10.27;9.15;;;;;;;9.67;100.00;101927.69;2071805;28;20042;-66
2022/07/05 03:19:08;;;;;;;10.77;9.68;;;;;;;9.68;100.00;101931.25;2071531;28;20039;-65
2022/07/05 03:20:10;;;;;;;10.63;8.70;;;;;;;9.65;100.00;101928.56;2071920;28;20092;-66
2022/07/05 03:21:15;;;;;;;11.35;9.23;;;;;;;9.65;100.00;101932.13;2071690;28;20061;-67
2022/07/05 03:22:17;;;;;;;9.80;8.80;;;;;;;9.62;100.00;101926.81;2071328;28;20049;-66
2022/07/05 03:23:19;;;;;;;13.25;8.80;;;;;;;9.67;100.00;101926.78;2071377;28;20051;-64
2022/07/05 03:24:27;;;;;;;12.15;10.50;;;;;;;9.73;100.00;101927.66;2063099;28;20173;-66
2022/07/05 03:25:29;;;;;;;10.48;8.57;;;;;;;9.68;100.00;101929.44;2063865;28;20051;-66
2022/07/05 03:26:33;;;;;;;9.57;8.38;;;;;;;9.69;100.00;101924.97;2071402;28;20046;-65
2022/07/05 03:27:35;;;;;;;10.80;9.68;;;;;;;9.71;100.00;101934.78;2071710;28;20027;-65
2022/07/05 03:28:38;;;;;;;9.60;8.60;;;;;;;9.68;99.69;101931.25;2071385;28;20934;-66
2022/07/05 03:29:40;;;;;;;12.80;9.25;;;;;;;9.66;99.75;101931.25;2071710;28;20142;-66
2022/07/05 03:30:43;;;;;;;10.43;8.63;;;;;;;9.71;100.00;101929.44;2071295;28;20112;-66
2022/07/05 03:31:45;;;;;;;9.32;8.38;;;;;;;9.70;99.55;101933.00;2071918;28;20194;-66
2022/07/05 03:32:47;;;;;;;12.32;8.80;;;;;;;9.73;99.85;101930.31;2071370;28;20129;-66
2022/07/05 03:33:48;;;;;;;10.50;8.95;;;;;;;9.73;99.23;101927.66;2071959;28;20046;-66
2022/07/05 03:34:53;;;;;;;8.02;7.05;;;;;;;9.73;99.36;101934.78;2071580;28;20725;-65
2022/07/05 03:35:57;;;;;;;10.32;7.70;;;;;;;9.71;98.99;101934.78;2063480;28;20169;-65
2022/07/05 03:37:00;;;;;;;10.30;7.97;;;;;;;9.73;100.00;101930.31;2063074;28;20089;-64
2022/07/05 03:38:04;;;;;;;8.55;7.78;;;;;;;9.77;99.98;101933.00;2071459;28;20194;-64
2022/07/05 03:39:06;;;;;;;8.27;7.47;;;;;;;9.78;99.96;101940.09;2071424;28;20043;-64
2022/07/05 03:40:11;;;;;;;9.63;7.85;;;;;;;9.84;99.33;101937.44;2071752;28;20039;-65
2022/07/05 03:41:13;;;;;;;13.45;8.50;;;;;;;9.89;99.06;101933.84;2063742;28;20875;-67
2022/07/05 03:42:15;;;;;;;8.88;7.97;;;;;;;9.97;99.12;101940.94;2071606;28;20901;-64
2022/07/05 03:43:17;;;;;;;11.32;8.23;;;;;;;9.99;98.64;101936.47;2071536;28;20039;-64
2022/07/05 03:44:19;;;;;;;10.25;8.75;;;;;;;10.05;99.00;101941.78;2071789;28;20078;-66
2022/07/05 03:45:23;;;;;;;12.52;8.77;;;;;;;10.06;98.69;101938.22;2071389;28;20042;-64
2022/07/05 03:46:25;;;;;;;12.00;8.27;;;;;;;10.06;98.65;101940.88;2063642;28;20145;-64
2022/07/05 03:47:27;;;;;;;9.98;7.07;;;;;;;10.09;98.21;101935.53;2063419;28;20047;-66
2022/07/05 03:48:29;;;;;;;11.75;8.25;;;;;;;10.13;98.35;101939.97;2064494;28;21164;-64
2022/07/05 03:49:51;;;;;;;8.50;7.70;;;;;;;10.17;98.37;101939.03;2071550;28;20894;-65
2022/07/05 03:50:53;;;;;;;8.73;7.38;;;;;;;10.26;97.78;101938.09;2071072;28;20038;-65
2022/07/05 03:51:58;;;;;;;8.57;7.78;;;;;;;10.32;97.99;101938.13;2071521;28;20350;-65
2022/07/05 03:53:03;;;;;;;8.70;7.55;;;;;;;10.37;97.24;101946.13;2070837;28;20026;-65
2022/07/05 03:54:06;;;;;;;7.93;7.10;;;;;;;10.38;97.23;101947.91;2071420;28;20050;-65
2022/07/05 03:55:08;;;;;;;11.18;6.35;;;;;;;10.38;97.28;101945.22;2071045;28;21021;-64
2022/07/05 03:56:12;;;;;;;7.57;6.78;;;;;;;10.37;96.76;101941.63;2063375;28;20817;-63
2022/07/05 03:57:14;;;;;;;6.97;6.00;;;;;;;10.36;96.73;101937.19;2063793;28;20039;-64
2022/07/05 03:58:17;;;;;;;8.80;6.22;;;;;;;10.38;96.51;101939.88;2063337;28;20047;-64
2022/07/05 03:59:20;;;;;;;6.57;5.50;;;;;;;10.38;96.58;101943.44;2063430;28;20094;-65
2022/07/05 04:00:22;;;;;;;8.32;6.88;;;;;;;10.41;96.97;101937.16;2063186;28;20051;-65
2022/07/05 04:01:33;;;;;;;7.88;6.72;;;;;;;10.47;96.21;101939.81;2064281;28;20039;-66
2022/07/05 04:02:36;;;;;;;8.77;6.53;;;;;;;10.56;96.23;101942.41;2072088;28;20237;-65
2022/07/05 04:03:38;;;;;;;9.27;6.47;;;;;;;10.72;95.98;101939.66;2071015;28;20086;-66
2022/07/05 04:04:44;;;;;;;7.00;5.97;;;;;;;10.86;95.64;101941.31;2071749;28;20899;-65
2022/07/05 04:05:47;;;;;;;7.45;5.93;;;;;;;11.03;95.08;101938.47;2071271;28;20058;-65
2022/07/05 04:06:49;;;;;;;9.75;6.60;;;;;;;11.34;94.42;101942.66;2070851;28;20915;-66
2022/07/05 04:07:55;;;;;;;6.07;5.40;;;;;;;11.77;93.75;101943.09;2071437;28;20939;-66
2022/07/05 04:09:13;;;;;;;8.77;5.03;;;;;;;12.36;91.55;101945.06;2071145;28;20057;-66
2022/07/05 04:10:16;;;;;;;6.22;4.38;;;;;;;12.80;88.89;101946.19;2071417;28;20957;-65
2022/07/05 04:11:18;;;;;;;5.95;4.80;;;;;;;13.37;87.41;101939.88;2071335;28;21017;-66
2022/07/05 04:12:24;;;;;;;6.93;3.97;;;;;;;13.90;84.07;101939.72;2070731;28;20050;-66
2022/07/05 04:13:26;;;;;;;3.40;3.10;;;;;;;14.52;81.65;101941.97;2063203;28;20039;-66
2022/07/05 04:14:31;;;;;;;3.67;3.38;;;;;;;15.09;77.34;101935.19;2063458;28;20047;-66
2022/07/05 04:15:33;;;;;;;2.65;2.45;;;;;;;15.60;74.75;101939.25;2062822;28;20043;-65
2022/07/05 04:16:38;;;;;;;5.35;2.40;;;;;;;16.12;72.44;101934.19;2063412;28;20793;-67
2022/07/05 04:17:52;;;;;;;6.72;2.50;;;;;;;16.48;67.63;101928.56;2071298;28;20039;-66
2022/07/05 04:18:55;;;;;;;3.03;1.98;;;;;;;17.17;68.56;101929.91;2071417;28;20046;-66
2022/07/05 04:19:58;;;;;;;6.15;2.17;;;;;;;17.24;65.48;101933.25;2062805;28;20094;-66
2022/07/05 04:21:00;;;;;;;5.15;2.13;;;;;;;17.99;64.72;101932.38;2063410;28;20117;-66
2022/07/05 04:22:02;;;;;;;3.15;1.65;;;;;;;18.51;63.54;101926.72;2099356;22;20054;-69
2022/07/05 04:23:08;;;;;;;3.35;1.63;;;;;;;18.81;62.26;101929.16;2090260;28;20122;-69
2022/07/05 04:24:10;;;;;;;3.33;1.63;;;;;;;18.99;58.91;101931.09;2080173;28;20054;-69
2022/07/05 04:25:18;;;;;;;3.28;1.50;;;;;;;19.24;58.08;101930.94;2080163;28;20046;-69
2022/07/05 04:26:37;;;;;;;2.53;1.40;;;;;;;19.66;57.99;101931.81;2074352;28;20040;-67
2022/07/05 04:27:38;;;;;;;3.30;1.65;;;;;;;19.89;58.12;101932.63;2074817;28;20192;-68
2022/07/05 04:28:43;;;;;;;2.28;1.45;;;;;;;20.38;56.36;101930.31;2087867;28;20048;-68
2022/07/05 04:29:48;;;;;;;4.10;1.60;;;;;;;20.67;53.89;101936.19;2095623;28;20810;-68
2022/07/05 04:30:52;;;;;;;2.50;1.35;;;;;;;20.93;54.47;101937.63;2095929;28;20897;-68
2022/07/05 04:31:58;;;;;;;3.70;1.35;;;;;;;21.30;51.25;101924.81;2087599;28;20057;-68
2022/07/05 04:33:01;;;;;;;3.78;1.40;;;;;;;21.31;52.61;101926.59;2087977;28;20858;-68
2022/07/05 04:34:03;;;;;;;2.05;1.27;;;;;;;21.81;51.09;101930.34;2087830;28;20045;-68
2022/07/05 04:35:10;;;;;;;4.63;0.90;;;;;;;22.22;50.00;101925.31;2088081;28;21004;-68
2022/07/05 04:36:14;;;;;;;1.75;1.27;;;;;;;21.65;47.91;101924.81;2087518;28;20057;-68
2022/07/05 04:37:16;;;;;;;3.17;1.50;;;;;;;22.39;48.85;101918.91;2087772;28;20081;-69
2022/07/05 04:38:19;;;;;;;2.83;1.25;;;;;;;22.98;47.98;101923.69;2090145;28;20183;-68
2022/07/05 04:39:24;;;;;;;2.88;1.17;;;;;;;23.02;46.93;101917.97;2087250;28;20072;-68
2022/07/05 04:40:37;;;;;;;2.10;1.02;;;;;;;23.44;46.63;101924.56;2089469;28;20177;-69
2022/07/05 04:41:39;;;;;;;1.73;1.10;;;;;;;22.75;46.31;101916.88;2095657;28;20171;-69
2022/07/05 04:42:43;;;;;;;1.88;1.13;;;;;;;23.24;46.24;101920.31;2079432;28;20826;-69
2022/07/05 04:43:46;;;;;;;3.40;1.17;;;;;;;23.16;45.93;101932.69;2080559;28;20045;-69
2022/07/05 04:44:49;;;;;;;2.05;1.17;;;;;;;23.54;44.02;101927.59;2087070;28;20046;-68
2022/07/05 04:45:50;;;;;;;3.47;1.60;;;;;;;23.38;43.45;101919.47;2087601;28;20041;-69
2022/07/05 04:46:57;;;;;;;2.00;0.90;;;;;;;24.13;43.55;101933.03;2087609;28;20874;-69
2022/07/05 04:48:01;;;;;;;1.83;1.05;;;;;;;24.28;43.99;101931.16;2087862;28;20049;-69
2022/07/05 04:49:07;;;;;;;1.95;0.80;;;;;;;24.42;40.47;101924.75;2088080;28;20145;-69
2022/07/05 04:50:11;;;;;;;2.55;0.90;;;;;;;24.58;42.42;101919.19;2088179;28;20871;-68
2022/07/05 04:51:13;;;;;;;2.00;0.90;;;;;;;24.91;39.75;101920.66;2095015;28;20041;-69
2022/07/05 04:52:17;;;;;;;3.00;1.20;;;;;;;24.57;41.51;101918.31;2087277;28;20957;-68
2022/07/05 04:53:19;;;;;;;4.30;0.85;;;;;;;25.24;41.32;101917.47;2088951;28;20155;-69
2022/07/05 04:54:21;;;;;;;3.35;0.82;;;;;;;25.38;39.85;101924.75;2088748;28;31490;-69
2022/07/05 04:55:23;;;;;;;3.58;1.10;;;;;;;25.39;40.86;101920.13;2087221;28;20066;-69
2022/07/05 04:56:24;;;;;;;2.38;1.30;;;;;;;25.04;41.18;101926.16;2088334;28;20046;-68
2022/07/05 04:57:26;;;;;;;2.13;1.00;;;;;;;24.73;40.77;101926.38;2088339;28;20038;-69
2022/07/05 04:58:30;;;;;;;2.28;0.90;;;;;;;25.28;37.97;101918.13;2087575;28;32511;-68